createdAt,value
2017-04-26T00:00:26.412Z,24.67
2017-04-26T00:01:26.422Z,24.73
2017-04-26T00:02:26.474Z,24.65
2017-04-26T00:03:26.481Z,24.68
2017-04-26T00:04:26.437Z,24.65
2017-04-26T00:05:26.493Z,24.73
2017-04-26T00:06:26.551Z,24.69
2017-04-26T00:07:26.146Z,24.61
2017-04-26T00:08:26.472Z,24.5
2017-04-26T00:09:26.468Z,24.62
2017-04-26T00:10:26.473Z,24.52
2017-04-26T00:11:26.484Z,24.68
2017-04-26T00:12:26.536Z,24.67
2017-04-26T00:13:26.498Z,24.77
2017-04-26T00:14:26.503Z,24.71
2017-04-26T00:15:26.509Z,24.81
2017-04-26T00:16:26.513Z,24.77
2017-04-26T00:17:26.570Z,24.8
2017-04-26T00:18:25.912Z,24.81
2017-04-26T00:19:26.223Z,24.87
2017-04-26T00:20:26.641Z,24.85
2017-04-26T00:21:26.287Z,24.81
2017-04-26T00:22:26.292Z,24.84
2017-04-26T00:23:26.250Z,24.81
2017-04-26T00:24:26.256Z,24.83
2017-04-26T00:25:26.310Z,24.78
2017-04-26T00:31:59.590Z,24.81
2017-04-26T00:32:59.650Z,24.81
2017-04-26T00:33:59.605Z,24.78
2017-04-26T00:34:59.305Z,24.83
2017-04-26T00:35:59.619Z,24.81
2017-04-26T00:36:59.362Z,24.8
2017-04-26T00:37:59.320Z,24.84
2017-04-26T00:38:59.637Z,24.84
2017-04-26T00:39:59.642Z,24.81
2017-04-26T00:40:59.337Z,24.84
2017-04-26T00:41:59.398Z,24.81
2017-04-26T00:42:59.351Z,24.76
2017-04-26T00:43:59.410Z,24.84
2017-04-26T00:44:59.741Z,24.84
2017-04-26T00:45:59.700Z,24.84
2017-04-26T00:46:59.690Z,24.83
2017-04-26T00:47:59.393Z,24.83
2017-04-26T00:48:59.706Z,24.84
2017-04-26T00:49:59.138Z,24.81
2017-04-26T00:50:59.714Z,24.85
2017-04-26T00:51:59.724Z,24.93
2017-04-26T00:52:59.738Z,24.95
2017-04-26T00:53:59.785Z,24.85
2017-04-26T00:54:59.762Z,24.87
2017-04-26T00:55:59.435Z,24.93
2017-04-26T00:56:59.445Z,24.83
2017-04-26T00:57:59.763Z,24.83
2017-04-26T00:58:59.817Z,24.71
2017-04-26T00:59:59.776Z,24.65
2017-04-26T01:00:59.477Z,24.62
2017-04-26T01:01:59.885Z,24.68
2017-04-26T01:02:59.483Z,24.55
2017-04-26T01:03:59.813Z,24.57
2017-04-26T01:04:59.804Z,24.65
2017-04-26T01:05:59.909Z,24.62
2017-04-26T01:06:59.813Z,24.67
2017-04-26T01:07:59.523Z,24.53
2017-04-26T01:08:59.830Z,24.57
2017-04-26T01:09:59.837Z,24.3
2017-04-26T01:10:59.838Z,24.52
2017-04-26T01:11:59.584Z,24.45
2017-04-26T01:12:59.851Z,24.52
2017-04-26T01:13:59.905Z,24.53
2017-04-26T01:14:59.906Z,24.62
2017-04-26T01:15:59.295Z,24.69
2017-04-26T01:16:59.559Z,24.62
2017-04-26T01:17:59.879Z,24.8
2017-04-26T01:18:59.931Z,24.77
2017-04-26T01:19:59.625Z,24.83
2017-04-26T01:20:59.896Z,24.77
2017-04-26T01:21:59.685Z,24.68
2017-04-26T01:22:59.281Z,24.73
2017-04-26T01:23:59.912Z,24.71
2017-04-26T01:24:59.916Z,24.76
2017-04-26T01:25:59.924Z,24.69
2017-04-26T01:26:59.973Z,24.83
2017-04-26T01:27:59.984Z,24.85
2017-04-26T01:28:59.626Z,24.9
2017-04-26T01:30:00.062Z,24.83
2017-04-26T01:31:00.006Z,24.76
2017-04-26T01:31:59.658Z,24.77
2017-04-26T01:32:59.968Z,24.71
2017-04-26T01:33:59.985Z,24.68
2017-04-26T01:34:59.676Z,24.73
2017-04-26T01:36:00.010Z,24.78
2017-04-26T01:37:00.037Z,24.81
2017-04-26T01:37:59.694Z,24.81
2017-04-26T01:38:59.751Z,24.67
2017-04-26T01:40:00.068Z,24.84
2017-04-26T01:40:59.447Z,24.77
2017-04-26T01:42:00.016Z,24.76
2017-04-26T01:42:59.763Z,24.83
2017-04-26T01:44:00.036Z,24.73
2017-04-26T01:45:00.088Z,24.84
2017-04-26T01:46:00.091Z,24.76
2017-04-26T01:47:00.122Z,24.76
2017-04-26T01:47:59.766Z,24.81
2017-04-26T01:49:00.067Z,24.84
2017-04-26T01:49:59.764Z,24.76
2017-04-26T01:51:00.120Z,24.88
2017-04-26T01:51:59.833Z,24.73
2017-04-26T01:53:00.093Z,24.78
2017-04-26T01:54:00.099Z,24.77
2017-04-26T01:55:00.096Z,24.81
2017-04-26T01:55:59.838Z,24.73
2017-04-26T01:57:00.153Z,24.69
2017-04-26T01:58:00.175Z,24.8
2017-04-26T01:58:59.564Z,24.81
2017-04-26T02:00:00.138Z,24.8
2017-04-26T02:01:00.184Z,24.81
2017-04-26T02:02:00.137Z,24.77
2017-04-26T02:02:59.849Z,24.68
2017-04-26T02:03:59.861Z,24.85
2017-04-26T02:04:59.848Z,24.71
2017-04-26T02:06:00.163Z,24.71
2017-04-26T02:07:00.167Z,24.84
2017-04-26T02:08:00.475Z,24.8
2017-04-26T02:09:00.242Z,24.69
2017-04-26T02:10:00.206Z,24.68
2017-04-26T02:11:00.192Z,24.64
2017-04-26T02:12:00.212Z,24.53
2017-04-26T02:13:00.254Z,24.76
2017-04-26T02:13:59.899Z,24.73
2017-04-26T02:15:00.266Z,24.73
2017-04-26T02:16:00.236Z,24.64
2017-04-26T02:17:00.277Z,24.64
2017-04-26T02:17:59.973Z,24.62
2017-04-26T02:18:59.931Z,24.73
2017-04-26T02:20:00.245Z,24.64
2017-04-26T02:21:00.297Z,24.67
2017-04-26T02:22:00.256Z,24.77
2017-04-26T02:22:59.949Z,24.65
2017-04-26T02:24:00.014Z,24.73
2017-04-26T02:24:59.963Z,24.76
2017-04-26T02:26:00.280Z,24.73
2017-04-26T02:27:00.286Z,24.83
2017-04-26T02:28:00.296Z,24.83
2017-04-26T02:29:00.352Z,24.71
2017-04-26T02:29:59.996Z,24.68
2017-04-26T02:31:00.309Z,24.62
2017-04-26T02:32:00.365Z,24.77
2017-04-26T02:33:00.379Z,24.73
2017-04-26T02:34:00.430Z,24.77
2017-04-26T02:35:00.030Z,24.73
2017-04-26T02:36:00.030Z,24.69
2017-04-26T02:37:00.394Z,24.73
2017-04-26T02:38:00.705Z,24.68
2017-04-26T02:39:00.360Z,24.73
2017-04-26T02:40:00.369Z,24.81
2017-04-26T02:41:00.111Z,24.76
2017-04-26T02:42:00.070Z,24.8
2017-04-26T02:43:00.388Z,24.77
2017-04-26T02:44:00.494Z,24.77
2017-04-26T02:45:00.404Z,24.77
2017-04-26T02:46:00.453Z,24.78
2017-04-26T02:47:00.104Z,24.64
2017-04-26T02:48:00.416Z,24.71
2017-04-26T02:49:00.427Z,24.64
2017-04-26T02:50:00.432Z,24.68
2017-04-26T02:51:00.505Z,24.71
2017-04-26T02:52:00.128Z,24.73
2017-04-26T02:53:00.454Z,24.68
2017-04-26T02:54:00.452Z,24.77
2017-04-26T02:55:00.515Z,24.62
2017-04-26T02:56:00.206Z,24.6
2017-04-26T02:57:00.213Z,24.58
2017-04-26T02:58:00.173Z,24.67
2017-04-26T02:59:00.182Z,24.53
2017-04-26T03:00:00.496Z,24.65
2017-04-26T03:01:00.494Z,24.67
2017-04-26T03:02:00.244Z,24.58
2017-04-26T03:03:00.506Z,24.62
2017-04-26T03:04:00.891Z,24.78
2017-04-26T03:05:00.530Z,24.65
2017-04-26T03:06:00.222Z,24.61
2017-04-26T03:07:00.533Z,24.55
2017-04-26T03:08:00.547Z,24.61
2017-04-26T03:09:00.339Z,24.52
2017-04-26T03:10:00.560Z,24.57
2017-04-26T03:11:00.559Z,24.58
2017-04-26T03:12:00.569Z,24.68
2017-04-26T03:13:00.263Z,24.65
2017-04-26T03:14:00.583Z,24.73
2017-04-26T03:15:00.636Z,24.64
2017-04-26T03:16:00.597Z,24.77
2017-04-26T03:17:00.601Z,24.76
2017-04-26T03:18:00.664Z,24.67
2017-04-26T03:19:00.616Z,24.64
2017-04-26T03:19:59.995Z,24.64
2017-04-26T03:21:00.675Z,24.67
2017-04-26T03:22:00.670Z,24.67
2017-04-26T03:23:00.638Z,24.68
2017-04-26T03:24:00.653Z,24.71
2017-04-26T03:25:00.386Z,24.69
2017-04-26T03:26:00.343Z,24.55
2017-04-26T03:27:00.657Z,24.52
2017-04-26T03:28:00.672Z,24.64
2017-04-26T03:29:00.429Z,24.65
2017-04-26T03:30:00.683Z,24.57
2017-04-26T03:31:00.744Z,24.61
2017-04-26T03:32:00.691Z,24.62
2017-04-26T03:33:00.701Z,24.58
2017-04-26T03:34:00.802Z,24.58
2017-04-26T03:35:00.716Z,24.67
2017-04-26T03:36:00.718Z,24.64
2017-04-26T03:37:00.412Z,24.67
2017-04-26T03:38:00.731Z,24.62
2017-04-26T03:39:00.747Z,24.65
2017-04-26T03:40:00.432Z,24.67
2017-04-26T03:41:00.750Z,24.64
2017-04-26T03:42:00.809Z,24.68
2017-04-26T03:43:00.820Z,24.73
2017-04-26T03:44:00.871Z,24.8
2017-04-26T03:45:00.776Z,24.71
2017-04-26T03:46:00.470Z,24.73
2017-04-26T03:47:00.576Z,24.73
2017-04-26T03:48:00.488Z,24.65
2017-04-26T03:49:00.853Z,24.62
2017-04-26T03:50:00.861Z,24.68
2017-04-26T03:51:00.809Z,24.5
2017-04-26T03:52:00.611Z,24.64
2017-04-26T03:53:00.826Z,24.6
2017-04-26T03:54:00.880Z,24.6
2017-04-26T03:55:00.837Z,24.61
2017-04-26T03:56:00.583Z,24.57
2017-04-26T03:57:00.852Z,24.55
2017-04-26T03:58:00.857Z,24.64
2017-04-26T03:59:00.551Z,24.61
2017-04-26T04:00:00.867Z,24.61
2017-04-26T04:01:00.561Z,24.53
2017-04-26T04:02:00.618Z,24.62
2017-04-26T04:03:00.882Z,24.55
2017-04-26T04:04:00.885Z,24.52
2017-04-26T04:05:00.986Z,24.5
2017-04-26T04:06:00.910Z,24.47
2017-04-26T04:07:00.961Z,24.5
2017-04-26T04:08:00.657Z,24.45
2017-04-26T04:09:00.933Z,24.53
2017-04-26T04:10:01.030Z,24.57
2017-04-26T04:11:00.940Z,24.55
2017-04-26T04:12:00.942Z,24.47
2017-04-26T04:13:00.947Z,24.52
2017-04-26T04:14:01.055Z,24.53
2017-04-26T04:15:00.652Z,24.49
2017-04-26T04:16:00.971Z,24.46
2017-04-26T04:17:01.024Z,24.52
2017-04-26T04:18:01.028Z,24.47
2017-04-26T04:19:00.995Z,24.47
2017-04-26T04:20:00.679Z,24.52
2017-04-26T04:21:00.995Z,24.5
2017-04-26T04:22:01.002Z,24.45
2017-04-26T04:23:01.006Z,24.49
2017-04-26T04:24:00.703Z,24.49
2017-04-26T04:25:00.715Z,24.43
2017-04-26T04:26:01.077Z,24.4
2017-04-26T04:27:01.082Z,24.32
2017-04-26T04:28:01.039Z,24.37
2017-04-26T04:29:00.735Z,24.46
2017-04-26T04:30:01.053Z,24.4
2017-04-26T04:31:01.061Z,24.37
2017-04-26T04:32:01.163Z,24.4
2017-04-26T04:33:01.120Z,24.42
2017-04-26T04:34:01.074Z,24.43
2017-04-26T04:35:01.088Z,24.47
2017-04-26T04:36:01.087Z,24.4
2017-04-26T04:37:01.097Z,24.45
2017-04-26T04:38:01.150Z,24.39
2017-04-26T04:39:01.108Z,24.46
2017-04-26T04:40:00.801Z,24.45
2017-04-26T04:41:01.170Z,24.46
2017-04-26T04:42:00.824Z,24.4
2017-04-26T04:43:01.136Z,24.35
2017-04-26T04:44:01.137Z,24.46
2017-04-26T04:45:01.199Z,24.32
2017-04-26T04:46:01.149Z,24.35
2017-04-26T04:47:01.204Z,24.45
2017-04-26T04:48:00.907Z,24.45
2017-04-26T04:49:01.169Z,24.37
2017-04-26T04:50:01.177Z,24.37
2017-04-26T04:51:01.228Z,24.42
2017-04-26T04:52:00.881Z,24.34
2017-04-26T04:53:00.936Z,24.39
2017-04-26T04:54:01.199Z,24.4
2017-04-26T04:55:01.207Z,24.49
2017-04-26T04:56:01.215Z,24.35
2017-04-26T04:57:01.569Z,24.42
2017-04-26T04:58:01.230Z,24.5
2017-04-26T04:59:01.279Z,24.46
2017-04-26T05:00:00.979Z,24.47
2017-04-26T05:01:01.242Z,24.43
2017-04-26T05:02:00.989Z,24.34
2017-04-26T05:03:01.253Z,24.39
2017-04-26T05:04:01.262Z,24.43
2017-04-26T05:05:01.007Z,24.4
2017-04-26T05:06:01.066Z,24.37
2017-04-26T05:07:01.330Z,24.42
2017-04-26T05:08:01.288Z,24.37
2017-04-26T05:09:01.290Z,24.4
2017-04-26T05:10:01.040Z,24.39
2017-04-26T05:11:00.992Z,24.43
2017-04-26T05:12:01.314Z,24.55
2017-04-26T05:13:01.322Z,24.45
2017-04-26T05:14:01.373Z,24.37
2017-04-26T05:15:01.330Z,24.47
2017-04-26T05:16:01.333Z,24.35
2017-04-26T05:17:01.032Z,24.37
2017-04-26T05:18:01.397Z,24.39
2017-04-26T05:19:01.098Z,24.4
2017-04-26T05:20:01.050Z,24.46
2017-04-26T05:21:01.366Z,24.52
2017-04-26T05:22:01.369Z,24.53
2017-04-26T05:23:01.103Z,24.53
2017-04-26T05:24:01.434Z,24.47
2017-04-26T05:25:01.395Z,24.53
2017-04-26T05:26:01.449Z,24.49
2017-04-26T05:27:01.414Z,24.53
2017-04-26T05:28:01.104Z,24.5
2017-04-26T05:29:01.471Z,24.5
2017-04-26T05:30:01.423Z,24.55
2017-04-26T05:31:01.427Z,24.53
2017-04-26T05:32:01.436Z,24.62
2017-04-26T05:33:01.185Z,24.73
2017-04-26T05:34:01.499Z,24.6
2017-04-26T05:35:01.144Z,24.62
2017-04-26T05:36:01.459Z,24.67
2017-04-26T05:37:01.469Z,24.68
2017-04-26T05:38:01.475Z,24.69
2017-04-26T05:39:01.482Z,24.68
2017-04-26T05:40:01.496Z,24.73
2017-04-26T05:41:01.185Z,24.85
2017-04-26T05:42:01.239Z,24.87
2017-04-26T05:43:01.557Z,24.93
2017-04-26T05:44:01.520Z,24.95
2017-04-26T05:45:01.262Z,25.1
2017-04-26T05:46:01.263Z,25.18
2017-04-26T05:47:01.222Z,25.23
2017-04-26T05:48:01.244Z,25.36
2017-04-26T05:49:01.597Z,25.15
2017-04-26T05:50:01.555Z,25.06
2017-04-26T05:51:01.610Z,24.98
2017-04-26T05:52:01.620Z,24.9
2017-04-26T05:53:01.571Z,24.84
2017-04-26T05:54:01.587Z,24.68
2017-04-26T05:55:01.586Z,24.68
2017-04-26T05:56:01.888Z,24.52
2017-04-26T05:57:01.285Z,24.46
2017-04-26T05:58:01.658Z,24.39
2017-04-26T05:59:01.665Z,24.35
2017-04-26T06:00:01.304Z,24.34
2017-04-26T06:01:01.628Z,24.27
2017-04-26T06:02:01.630Z,24.22
2017-04-26T06:03:01.639Z,24.24
2017-04-26T06:04:01.743Z,24.27
2017-04-26T06:05:01.651Z,24.27
2017-04-26T06:06:01.345Z,24.34
2017-04-26T06:07:01.662Z,24.22
2017-04-26T06:08:01.674Z,24.13
2017-04-26T06:09:01.675Z,24.1
2017-04-26T06:10:01.683Z,24.12
2017-04-26T06:11:01.069Z,24.27
2017-04-26T06:12:01.384Z,24.22
2017-04-26T06:13:01.702Z,24.35
2017-04-26T06:14:01.706Z,24.25
2017-04-26T06:15:01.448Z,24.4
2017-04-26T06:16:01.454Z,24.32
2017-04-26T06:17:01.411Z,24.47
2017-04-26T06:18:01.727Z,24.6
2017-04-26T06:19:01.732Z,24.58
2017-04-26T06:20:01.737Z,24.68
2017-04-26T06:21:01.751Z,24.64
2017-04-26T06:22:01.813Z,24.55
2017-04-26T06:23:01.501Z,24.55
2017-04-26T06:24:01.809Z,24.49
2017-04-26T06:25:01.824Z,24.53
2017-04-26T06:26:01.829Z,24.69
2017-04-26T06:27:01.785Z,24.62
2017-04-26T06:28:01.845Z,24.58
2017-04-26T06:29:01.797Z,24.53
2017-04-26T06:30:01.807Z,24.57
2017-04-26T06:31:01.501Z,24.5
2017-04-26T06:32:01.510Z,24.53
2017-04-26T06:33:01.826Z,24.6
2017-04-26T06:34:01.831Z,24.45
2017-04-26T06:35:01.578Z,24.42
2017-04-26T06:36:01.844Z,24.52
2017-04-26T06:37:01.894Z,24.35
2017-04-26T06:38:01.856Z,24.47
2017-04-26T06:39:01.865Z,24.4
2017-04-26T06:40:01.913Z,24.3
2017-04-26T06:41:01.561Z,24.28
2017-04-26T06:42:01.929Z,24.32
2017-04-26T06:43:01.949Z,24.27
2017-04-26T06:44:01.631Z,24.18
2017-04-26T06:45:01.593Z,24.13
2017-04-26T06:46:01.290Z,24.2
2017-04-26T06:47:01.602Z,24.09
2017-04-26T06:48:01.918Z,24.08
2017-04-26T06:49:01.923Z,24.15
2017-04-26T06:50:01.932Z,24.09
2017-04-26T06:51:01.674Z,24.2
2017-04-26T06:52:01.684Z,24.16
2017-04-26T06:53:01.995Z,24.18
2017-04-26T06:54:01.952Z,24.18
2017-04-26T06:55:01.959Z,24.09
2017-04-26T06:56:02.017Z,24.02
2017-04-26T06:57:01.975Z,24.05
2017-04-26T06:58:01.719Z,24.1
2017-04-26T06:59:02.000Z,24.06
2017-04-26T07:00:01.997Z,23.95
2017-04-26T07:01:02.051Z,24.06
2017-04-26T07:02:01.796Z,24.09
2017-04-26T07:03:02.014Z,23.97
2017-04-26T07:04:02.020Z,24.08
2017-04-26T07:05:01.716Z,24.05
2017-04-26T07:06:01.770Z,24.06
2017-04-26T07:07:01.729Z,24.06
2017-04-26T07:08:02.045Z,24.1
2017-04-26T07:09:01.740Z,24.22
2017-04-26T07:10:02.053Z,24.18
2017-04-26T07:11:01.799Z,24.22
2017-04-26T07:12:02.116Z,24.2
2017-04-26T07:13:02.122Z,24.32
2017-04-26T07:14:02.129Z,24.22
2017-04-26T07:15:02.136Z,24.24
2017-04-26T07:16:02.095Z,24.25
2017-04-26T07:17:01.787Z,24.13
2017-04-26T07:18:02.104Z,24.21
2017-04-26T07:19:02.163Z,24.16
2017-04-26T07:20:02.120Z,24.08
2017-04-26T07:21:02.125Z,24.05
2017-04-26T07:22:02.134Z,24.02
2017-04-26T07:23:01.875Z,24.08
2017-04-26T07:24:02.192Z,24
2017-04-26T07:25:01.840Z,23.95
2017-04-26T07:26:02.155Z,23.94
2017-04-26T07:27:02.218Z,24.1
2017-04-26T07:28:01.905Z,24.25
2017-04-26T07:29:01.864Z,24.35
2017-04-26T07:30:01.872Z,24.52
2017-04-26T07:31:02.184Z,24.68
2017-04-26T07:32:02.211Z,24.84
2017-04-26T07:33:02.203Z,25.06
2017-04-26T07:34:02.261Z,25.08
2017-04-26T07:35:02.209Z,25.17
2017-04-26T07:36:02.265Z,25.4
2017-04-26T07:37:02.222Z,25.43
2017-04-26T07:38:02.333Z,25.54
2017-04-26T07:39:01.925Z,25.7
2017-04-26T07:40:02.240Z,25.88
2017-04-26T07:41:02.251Z,25.88
2017-04-26T07:42:02.338Z,25.99
2017-04-26T07:43:02.274Z,26.06
2017-04-26T07:44:02.004Z,26.07
2017-04-26T07:45:02.274Z,26.06
2017-04-26T07:46:02.279Z,26.26
2017-04-26T07:47:01.974Z,26.3
2017-04-26T07:48:01.981Z,26.35
2017-04-26T07:49:02.355Z,26.5
2017-04-26T07:50:02.303Z,26.55
2017-04-26T07:51:02.364Z,26.58
2017-04-26T07:52:02.323Z,26.67
2017-04-26T07:53:02.016Z,26.88
2017-04-26T07:54:02.330Z,26.91
2017-04-26T07:55:02.077Z,26.82
2017-04-26T07:56:02.343Z,26.81
2017-04-26T07:57:02.352Z,26.75
2017-04-26T07:58:02.357Z,26.7
2017-04-26T07:59:02.416Z,26.82
2017-04-26T08:00:02.424Z,26.82
2017-04-26T08:01:02.066Z,26.85
2017-04-26T08:02:02.431Z,26.8
2017-04-26T08:03:02.129Z,26.75
2017-04-26T08:04:02.139Z,26.81
2017-04-26T08:05:02.404Z,26.84
2017-04-26T08:06:02.098Z,26.81
2017-04-26T08:07:02.105Z,26.84
2017-04-26T08:08:02.421Z,26.8
2017-04-26T08:09:02.485Z,26.88
2017-04-26T08:10:02.541Z,26.92
2017-04-26T08:11:02.447Z,26.88
2017-04-26T08:12:02.449Z,26.97
2017-04-26T08:13:02.457Z,26.89
2017-04-26T08:14:02.565Z,26.87
2017-04-26T08:15:02.469Z,26.89
2017-04-26T08:16:02.168Z,26.95
2017-04-26T08:17:02.483Z,26.92
2017-04-26T08:18:02.593Z,27.03
2017-04-26T08:19:02.496Z,26.91
2017-04-26T08:20:02.505Z,26.82
2017-04-26T08:21:02.516Z,26.81
2017-04-26T08:22:02.568Z,26.73
2017-04-26T08:23:02.213Z,26.75
2017-04-26T08:24:02.535Z,26.94
2017-04-26T08:25:01.920Z,26.84
2017-04-26T08:26:02.598Z,26.52
2017-04-26T08:27:02.551Z,25.51
2017-04-26T08:28:02.558Z,24.73
2017-04-26T08:29:02.563Z,25.18
2017-04-26T08:30:02.252Z,25.05
2017-04-26T08:31:02.308Z,24.15
2017-04-26T08:32:02.575Z,24.09
2017-04-26T08:33:02.310Z,24.31
2017-04-26T08:34:02.312Z,24.08
2017-04-26T08:35:02.581Z,23.79
2017-04-26T08:36:02.318Z,23.42
2017-04-26T08:37:02.564Z,23.69
2017-04-26T08:38:02.629Z,22.88
2017-04-26T08:39:02.274Z,23.16
2017-04-26T08:40:02.269Z,23.05
2017-04-26T08:41:02.584Z,22.88
2017-04-26T08:42:02.326Z,22.82
2017-04-26T08:43:02.014Z,22.8
2017-04-26T08:44:02.325Z,21.82
2017-04-26T08:45:02.638Z,22.25
2017-04-26T08:46:02.636Z,22.39
2017-04-26T08:47:02.014Z,21.82
2017-04-26T08:48:02.586Z,21.58
2017-04-26T08:49:02.588Z,21.24
2017-04-26T08:50:02.634Z,21.72
2017-04-26T08:51:02.587Z,21.4
2017-04-26T08:52:02.634Z,20.43
2017-04-26T08:53:02.323Z,21.03
2017-04-26T08:54:02.587Z,21.24
2017-04-26T08:55:02.581Z,21.29
2017-04-26T08:56:02.270Z,20.92
2017-04-26T08:57:02.582Z,20.39
2017-04-26T08:58:02.271Z,20.39
2017-04-26T08:59:02.679Z,20.73
2017-04-26T09:00:02.578Z,20.87
2017-04-26T09:01:02.627Z,21.74
2017-04-26T09:02:02.630Z,20.33
2017-04-26T09:03:02.264Z,20.55
2017-04-26T09:04:02.575Z,19.98
2017-04-26T09:05:02.573Z,19.28
2017-04-26T09:06:02.359Z,19.74
2017-04-26T09:07:02.570Z,19.69
2017-04-26T09:08:02.306Z,19.22
2017-04-26T09:09:02.355Z,19.71
2017-04-26T09:10:02.563Z,20.79
2017-04-26T09:11:02.569Z,19.91
2017-04-26T09:12:02.572Z,19.69
2017-04-26T09:13:02.605Z,19.88
2017-04-26T09:14:02.585Z,21.53
2017-04-26T09:15:02.242Z,22.2
2017-04-26T09:16:02.554Z,22.17
2017-04-26T09:17:02.238Z,22.43
2017-04-26T09:18:01.931Z,22.98
2017-04-26T09:19:02.544Z,22.9
2017-04-26T09:20:02.549Z,23.58
2017-04-26T09:21:02.248Z,23.88
2017-04-26T09:22:02.596Z,23.7
2017-04-26T09:23:02.286Z,23.8
2017-04-26T09:24:02.242Z,23.83
2017-04-26T09:25:02.600Z,24.02
2017-04-26T09:26:02.236Z,23.69
2017-04-26T09:27:02.238Z,23.72
2017-04-26T09:28:02.548Z,22.21
2017-04-26T09:29:02.550Z,22.83
2017-04-26T09:30:02.580Z,23.01
2017-04-26T09:31:02.244Z,23.15
2017-04-26T09:32:02.553Z,22.47
2017-04-26T09:33:02.291Z,23.15
2017-04-26T09:34:02.555Z,22.9
2017-04-26T09:35:02.601Z,22.36
2017-04-26T09:36:02.566Z,22.76
2017-04-26T09:37:02.559Z,22.86
2017-04-26T09:38:02.252Z,23.39
2017-04-26T09:39:02.558Z,23.31
2017-04-26T09:40:02.559Z,23.27
2017-04-26T09:41:02.575Z,23.2
2017-04-26T09:42:02.253Z,22.65
2017-04-26T09:43:02.563Z,21.47
2017-04-26T09:44:02.564Z,22.12
2017-04-26T09:45:02.614Z,22.7
2017-04-26T09:46:02.567Z,22.83
2017-04-26T09:47:02.569Z,22.88
2017-04-26T09:48:02.564Z,22.61
2017-04-26T09:49:02.616Z,22.97
2017-04-26T09:50:02.566Z,23.38
2017-04-26T09:51:02.259Z,23.73
2017-04-26T09:52:02.307Z,23.57
2017-04-26T09:53:02.619Z,23.5
2017-04-26T09:54:02.617Z,23.42
2017-04-26T09:55:02.261Z,23.57
2017-04-26T09:56:02.570Z,23.66
2017-04-26T09:57:02.869Z,22.33
2017-04-26T09:58:02.573Z,22.07
2017-04-26T09:59:02.574Z,21.98
2017-04-26T10:00:02.316Z,22.06
2017-04-26T10:01:02.571Z,22.98
2017-04-26T10:02:02.575Z,22.88
2017-04-26T10:03:02.567Z,22.17
2017-04-26T10:04:02.571Z,21.67
2017-04-26T10:05:02.622Z,22.3
2017-04-26T10:06:02.574Z,21.88
2017-04-26T10:07:02.669Z,22.73
2017-04-26T10:08:02.261Z,23.15
2017-04-26T10:09:02.573Z,22.79
2017-04-26T10:10:02.571Z,22.91
2017-04-26T10:11:02.625Z,23.19
2017-04-26T10:12:02.583Z,23.88
2017-04-26T10:13:02.623Z,24.21
2017-04-26T10:14:38.695Z,24.76
2017-04-26T10:15:14.427Z,24.78
2017-04-26T10:16:14.691Z,24.88
2017-04-26T10:17:14.697Z,25.02
2017-04-26T10:18:14.389Z,25.1
2017-04-26T10:19:14.395Z,25.08
2017-04-26T10:20:14.707Z,25.1
2017-04-26T10:21:14.713Z,25.18
2017-04-26T10:22:14.719Z,25.18
2017-04-26T10:23:14.772Z,25.09
2017-04-26T10:24:14.728Z,25.09
2017-04-26T10:25:14.735Z,25.09
2017-04-26T10:26:14.479Z,25.08
2017-04-26T10:27:14.744Z,25.09
2017-04-26T10:28:41.149Z,25.15
2017-04-26T10:29:14.463Z,25.2
2017-04-26T10:30:14.767Z,25.25
2017-04-26T10:31:14.457Z,25.25
2017-04-26T10:32:14.468Z,25.2
2017-04-26T10:33:14.790Z,25.21
2017-04-26T10:34:14.526Z,25.25
2017-04-26T10:35:14.843Z,25.2
2017-04-26T10:36:14.611Z,25.27
2017-04-26T10:37:14.823Z,25.21
2017-04-26T10:38:14.551Z,25.46
2017-04-26T10:39:14.814Z,25.38
2017-04-26T10:40:14.822Z,25.3
2017-04-26T10:41:14.834Z,25.4
2017-04-26T10:42:14.525Z,25.42
2017-04-26T10:43:14.584Z,25.5
2017-04-26T10:44:14.541Z,25.35
2017-04-26T10:45:14.554Z,25.38
2017-04-26T10:46:14.566Z,25.38
2017-04-26T10:47:14.860Z,25.33
2017-04-26T10:48:14.572Z,25.27
2017-04-26T10:49:18.177Z,25.36
2017-04-26T10:50:14.580Z,25.23
2017-04-26T10:51:14.898Z,25.32
2017-04-26T10:52:14.640Z,25.09
2017-04-26T10:53:14.910Z,25.17
2017-04-26T10:54:14.968Z,25.03
2017-04-26T10:55:14.925Z,25
2017-04-26T10:56:14.619Z,24.84
2017-04-26T10:57:14.985Z,24.87
2017-04-26T10:58:14.992Z,25
2017-04-26T10:59:14.947Z,24.88
2017-04-26T11:00:15.008Z,25.02
2017-04-26T11:01:14.650Z,25.02
2017-04-26T11:02:15.022Z,25.03
2017-04-26T11:03:14.352Z,24.96
2017-04-26T11:04:14.982Z,25.09
2017-04-26T11:05:14.987Z,25.09
2017-04-26T11:06:14.683Z,25.06
2017-04-26T11:07:14.689Z,24.96
2017-04-26T11:08:15.103Z,24.99
2017-04-26T11:09:14.798Z,24.93
2017-04-26T11:10:15.120Z,24.98
2017-04-26T11:11:15.024Z,24.96
2017-04-26T11:12:14.724Z,24.9
2017-04-26T11:13:15.041Z,24.95
2017-04-26T11:14:15.093Z,24.85
2017-04-26T11:15:14.480Z,24.85
2017-04-26T11:16:14.436Z,24.9
2017-04-26T11:17:15.115Z,24.84
2017-04-26T11:18:14.781Z,24.83
2017-04-26T11:19:14.815Z,24.81
2017-04-26T11:20:15.087Z,24.81
2017-04-26T11:21:14.779Z,24.83
2017-04-26T11:22:14.786Z,24.87
2017-04-26T11:23:15.162Z,24.69
2017-04-26T11:24:14.797Z,24.87
2017-04-26T11:25:14.856Z,24.8
2017-04-26T11:26:15.122Z,24.93
2017-04-26T11:27:15.132Z,24.83
2017-04-26T11:28:15.135Z,24.81
2017-04-26T11:29:14.882Z,24.81
2017-04-26T11:30:14.637Z,24.85
2017-04-26T11:31:15.155Z,24.87
2017-04-26T11:32:15.211Z,24.71
2017-04-26T11:33:15.167Z,24.69
2017-04-26T11:34:15.225Z,24.68
2017-04-26T11:35:14.922Z,24.8
2017-04-26T11:36:15.238Z,24.68
2017-04-26T11:37:14.881Z,24.67
2017-04-26T11:38:14.979Z,24.69
2017-04-26T11:39:14.899Z,24.73
2017-04-26T11:40:15.213Z,24.76
2017-04-26T11:41:14.910Z,24.83
2017-04-26T11:42:15.279Z,24.9
2017-04-26T11:43:15.237Z,24.69
2017-04-26T11:44:15.240Z,24.78
2017-04-26T11:45:14.986Z,24.9
2017-04-26T11:46:15.309Z,24.84
2017-04-26T11:47:14.951Z,24.95
2017-04-26T11:48:15.316Z,24.88
2017-04-26T11:49:15.009Z,24.84
2017-04-26T11:50:14.970Z,24.91
2017-04-26T11:51:14.978Z,24.83
2017-04-26T11:52:15.341Z,24.78
2017-04-26T11:53:15.315Z,24.76
2017-04-26T11:54:15.305Z,24.77
2017-04-26T11:55:15.313Z,24.69
2017-04-26T11:56:15.005Z,24.61
2017-04-26T11:57:15.375Z,24.71
2017-04-26T11:58:15.018Z,24.62
2017-04-26T11:59:14.713Z,24.64
2017-04-26T12:00:15.031Z,24.64
2017-04-26T12:01:15.349Z,24.58
2017-04-26T12:02:15.047Z,24.5
2017-04-26T12:03:15.363Z,24.5
2017-04-26T12:04:15.370Z,24.47
2017-04-26T12:05:15.432Z,24.45
2017-04-26T12:06:15.129Z,24.34
2017-04-26T12:07:14.765Z,24.37
2017-04-26T12:08:15.442Z,24.39
2017-04-26T12:09:15.482Z,24.34
2017-04-26T12:10:15.145Z,24.31
2017-04-26T12:11:15.149Z,24.24
2017-04-26T12:12:15.417Z,24.35
2017-04-26T12:13:15.113Z,24.22
2017-04-26T12:14:15.121Z,24.2
2017-04-26T12:15:15.436Z,24.28
2017-04-26T12:16:15.151Z,24.2
2017-04-26T12:17:15.500Z,24.18
2017-04-26T12:18:14.892Z,24.28
2017-04-26T12:19:15.460Z,24.22
2017-04-26T12:20:15.469Z,24.24
2017-04-26T12:21:14.854Z,24.24
2017-04-26T12:22:15.483Z,24.2
2017-04-26T12:23:15.177Z,24.31
2017-04-26T12:24:15.282Z,24.35
2017-04-26T12:25:15.498Z,24.35
2017-04-26T12:26:15.244Z,24.37
2017-04-26T12:27:15.200Z,24.49
2017-04-26T12:28:15.517Z,24.53
2017-04-26T12:29:15.574Z,24.52
2017-04-26T12:30:15.530Z,24.52
2017-04-26T12:31:15.226Z,24.58
2017-04-26T12:32:15.241Z,24.64
2017-04-26T12:33:15.240Z,24.62
2017-04-26T12:34:15.348Z,24.71
2017-04-26T12:35:15.568Z,24.69
2017-04-26T12:36:15.566Z,24.73
2017-04-26T12:37:15.574Z,24.73
2017-04-26T12:38:15.631Z,24.83
2017-04-26T12:39:15.017Z,24.8
2017-04-26T12:40:15.281Z,24.84
2017-04-26T12:41:15.646Z,24.87
2017-04-26T12:42:15.351Z,24.84
2017-04-26T12:43:15.300Z,25
2017-04-26T12:44:15.355Z,24.99
2017-04-26T12:45:15.314Z,24.99
2017-04-26T12:46:15.320Z,25.1
2017-04-26T12:47:15.326Z,25.1
2017-04-26T12:48:15.387Z,25.05
2017-04-26T12:49:15.750Z,25.17
2017-04-26T12:50:15.349Z,25.14
2017-04-26T12:51:15.352Z,25.02
2017-04-26T12:52:15.362Z,24.93
2017-04-26T12:53:15.722Z,24.98
2017-04-26T12:54:15.469Z,25
2017-04-26T12:55:15.685Z,25.18
2017-04-26T12:56:15.069Z,25.23
2017-04-26T12:57:15.082Z,25.1
2017-04-26T12:58:15.394Z,25.17
2017-04-26T12:59:15.399Z,25.1
2017-04-26T13:00:15.459Z,25.06
2017-04-26T13:01:15.471Z,25.09
2017-04-26T13:02:15.473Z,24.9